Time;durP1;ratioP1;P1;durP2;ratioP2;P2;SDS_P1;SDS_P2;PMS_P1;PMS_P2;Temp;Humidity;BMP_temperature;BMP_pressure;BME280_temperature;BME280_humidity;BME280_pressure;Samples;Min_cycle;Max_cycle;Signal;HPM_P1;HPM_P2
2022/11/05 00:10:50;;;;;;;2.30;2.20;;;18.80;75.90;;;;;;5082344;27;45114;-71
2022/11/05 00:19:08;;;;;;;2.17;2.17;;;19.10;75.40;;;;;;5023730;28;43919;-72
2022/11/05 00:27:20;;;;;;;2.13;1.93;;;19.20;74.50;;;;;;4997863;28;43517;-70
2022/11/05 00:29:48;;;;;;;2.20;2.20;;;19.10;74.60;;;;;;5064940;27;44001;-72
2022/11/05 00:32:17;;;;;;;2.03;2.03;;;19.00;74.80;;;;;;5086286;27;43832;-72
2022/11/05 00:34:45;;;;;;;1.87;1.87;;;19.00;75.30;;;;;;5085833;27;43550;-71
2022/11/05 00:37:13;;;;;;;2.13;2.13;;;19.00;75.30;;;;;;5082612;27;43566;-71
2022/11/05 00:39:41;;;;;;;2.20;2.17;;;19.00;75.20;;;;;;5065798;28;43416;-71
2022/11/05 00:45:03;;;;;;;2.50;2.40;;;18.90;75.30;;;;;;5082707;27;43996;-72
2022/11/05 00:50:19;;;;;;;2.33;2.23;;;18.80;75.90;;;;;;5082706;27;43415;-72
2022/11/05 00:52:56;;;;;;;2.10;2.00;;;18.80;75.60;;;;;;5079123;27;44679;-73
2022/11/05 00:55:27;;;;;;;2.20;2.20;;;18.80;75.60;;;;;;5084508;27;44586;-72
2022/11/05 00:57:55;;;;;;;1.90;1.90;;;18.80;75.60;;;;;;5085169;27;43445;-73
2022/11/05 01:00:23;;;;;;;2.00;2.00;;;18.80;75.80;;;;;;5087668;27;44094;-73
2022/11/05 01:02:53;;;;;;;1.87;1.87;;;18.80;76.20;;;;;;5061612;27;45569;-71
2022/11/05 01:05:21;;;;;;;2.07;2.07;;;18.80;76.00;;;;;;5067093;27;44703;-73
2022/11/05 01:07:49;;;;;;;2.10;2.10;;;18.90;75.60;;;;;;5061633;27;43561;-71
2022/11/05 01:10:17;;;;;;;1.90;1.90;;;19.10;75.30;;;;;;5080770;27;43842;-71
2022/11/05 01:12:45;;;;;;;2.00;2.00;;;19.20;74.80;;;;;;5085154;27;44370;-72
2022/11/05 01:15:14;;;;;;;1.97;1.87;;;19.20;74.40;;;;;;5084219;27;44224;-72
2022/11/05 01:17:41;;;;;;;1.60;1.60;;;19.20;74.30;;;;;;5082980;27;44595;-72
2022/11/05 01:20:11;;;;;;;1.90;1.90;;;19.20;74.50;;;;;;5086867;27;43416;-71
2022/11/05 01:22:39;;;;;;;1.80;1.80;;;19.10;74.60;;;;;;5085092;27;43610;-71
2022/11/05 01:25:08;;;;;;;1.90;1.90;;;19.00;74.80;;;;;;5081446;27;44024;-73
2022/11/05 01:27:36;;;;;;;2.00;2.00;;;19.00;75.40;;;;;;5080658;27;43518;-74
2022/11/05 01:30:05;;;;;;;2.03;2.00;;;19.00;75.30;;;;;;5083843;27;43489;-72
2022/11/05 01:32:34;;;;;;;1.87;1.87;;;18.90;75.20;;;;;;5082837;27;43847;-72
2022/11/05 01:35:02;;;;;;;1.90;1.90;;;18.90;75.20;;;;;;5079881;27;44535;-71
2022/11/05 01:37:31;;;;;;;1.80;1.80;;;18.90;75.30;;;;;;5083347;27;43457;-71
2022/11/05 01:39:59;;;;;;;1.90;1.80;;;18.90;75.50;;;;;;5061920;28;43598;-71
2022/11/05 01:42:28;;;;;;;1.80;1.80;;;18.80;75.70;;;;;;5084786;27;43612;-73
2022/11/05 01:45:01;;;;;;;2.00;2.00;;;18.80;75.60;;;;;;5063545;27;44839;-71
2022/11/05 01:47:39;;;;;;;1.77;1.77;;;18.80;75.50;;;;;;5085382;27;44062;-73
2022/11/05 01:50:18;;;;;;;2.17;2.17;;;18.80;75.50;;;;;;5062316;28;43538;-71
2022/11/05 01:52:47;;;;;;;1.80;1.80;;;18.80;75.60;;;;;;5060049;27;46042;-72
2022/11/05 01:55:15;;;;;;;2.10;2.00;;;18.80;76.00;;;;;;5079609;27;43487;-71
2022/11/05 01:57:43;;;;;;;2.13;2.07;;;18.80;75.90;;;;;;5059734;27;43550;-71
2022/11/05 02:00:12;;;;;;;1.83;1.83;;;18.90;75.60;;;;;;5071453;27;43633;-71
2022/11/05 02:02:40;;;;;;;2.10;2.10;;;19.00;75.20;;;;;;5085304;27;43745;-71
2022/11/05 02:05:09;;;;;;;1.83;1.83;;;19.20;74.70;;;;;;5089324;27;43407;-70
2022/11/05 02:07:37;;;;;;;1.90;1.90;;;19.20;74.30;;;;;;5089318;27;43406;-70
2022/11/05 02:10:08;;;;;;;1.90;1.90;;;19.20;74.30;;;;;;5089817;27;43520;-70
2022/11/05 02:12:37;;;;;;;1.80;1.70;;;19.10;74.30;;;;;;5088554;27;45733;-70
2022/11/05 02:15:06;;;;;;;1.80;1.80;;;19.10;74.60;;;;;;5064975;27;44772;-71
2022/11/05 02:17:39;;;;;;;1.80;1.80;;;19.00;74.80;;;;;;5071520;27;43439;-74
2022/11/05 02:20:39;;;;;;;1.80;1.70;;;19.00;75.30;;;;;;5073413;27;44114;-71
2022/11/05 02:23:20;;;;;;;1.70;1.70;;;18.90;75.20;;;;;;5062453;27;45594;-71
2022/11/05 02:26:03;;;;;;;1.53;1.53;;;18.90;75.10;;;;;;5068103;28;44618;-71
2022/11/05 02:28:45;;;;;;;1.80;1.70;;;18.90;75.20;;;;;;5089114;27;43860;-71
2022/11/05 02:31:16;;;;;;;1.67;1.67;;;18.80;75.30;;;;;;5085933;27;44310;-69
2022/11/05 02:33:47;;;;;;;1.70;1.70;;;18.80;75.70;;;;;;5069424;27;45661;-69
2022/11/05 02:36:20;;;;;;;1.70;1.70;;;18.80;75.60;;;;;;5066159;27;45216;-70
2022/11/05 02:38:51;;;;;;;1.63;1.63;;;18.90;75.30;;;;;;5089627;27;43578;-71
2022/11/05 02:41:22;;;;;;;1.67;1.67;;;19.00;75.00;;;;;;5089613;27;44220;-70
2022/11/05 02:43:58;;;;;;;1.67;1.67;;;19.10;74.90;;;;;;5088719;27;44038;-71
2022/11/05 02:46:33;;;;;;;1.80;1.80;;;19.00;74.80;;;;;;5088631;27;43521;-70
2022/11/05 02:49:05;;;;;;;1.60;1.60;;;19.00;75.10;;;;;;5083001;27;43467;-70
2022/11/05 02:51:35;;;;;;;1.60;1.60;;;19.00;75.00;;;;;;5088302;27;43537;-71
2022/11/05 02:54:05;;;;;;;1.40;1.40;;;19.00;75.00;;;;;;5065627;27;45344;-71
2022/11/05 02:56:35;;;;;;;1.73;1.73;;;19.00;75.10;;;;;;5088719;27;44071;-73
2022/11/05 02:59:03;;;;;;;1.83;1.83;;;18.90;75.10;;;;;;5087690;27;43489;-71
2022/11/05 03:01:32;;;;;;;1.70;1.70;;;18.80;75.50;;;;;;5088871;27;43415;-72
2022/11/05 03:04:00;;;;;;;1.60;1.60;;;18.80;75.50;;;;;;5072896;28;46003;-71
2022/11/05 03:06:41;;;;;;;1.40;1.40;;;18.80;75.40;;;;;;5088692;27;43477;-70
2022/11/05 03:09:20;;;;;;;1.60;1.60;;;18.80;75.40;;;;;;5086917;27;43921;-72
2022/11/05 03:11:53;;;;;;;1.50;1.50;;;18.80;75.40;;;;;;5091672;27;43582;-73
2022/11/05 03:14:24;;;;;;;1.50;1.50;;;18.80;75.60;;;;;;5088156;27;43609;-72
2022/11/05 03:16:57;;;;;;;1.57;1.57;;;18.80;75.90;;;;;;5086084;27;43547;-71
2022/11/05 03:19:28;;;;;;;1.50;1.50;;;18.80;75.60;;;;;;5088066;27;43653;-70
2022/11/05 03:21:57;;;;;;;1.40;1.40;;;19.00;75.30;;;;;;5089231;27;43467;-72
2022/11/05 03:24:27;;;;;;;1.70;1.70;;;19.10;74.70;;;;;;5086983;27;43678;-71
2022/11/05 03:26:56;;;;;;;1.50;1.50;;;19.20;74.30;;;;;;5086393;27;43960;-71
2022/11/05 03:29:26;;;;;;;1.70;1.70;;;19.20;74.10;;;;;;5088135;27;43442;-71
2022/11/05 03:31:56;;;;;;;1.50;1.50;;;19.20;74.20;;;;;;5090344;27;43805;-73
2022/11/05 03:34:26;;;;;;;1.40;1.40;;;19.10;74.30;;;;;;5091395;27;43908;-70
2022/11/05 03:36:55;;;;;;;1.57;1.57;;;19.00;74.50;;;;;;5082698;27;43501;-71
2022/11/05 03:39:27;;;;;;;1.60;1.60;;;19.00;75.00;;;;;;5088553;27;43504;-72
2022/11/05 03:41:54;;;;;;;1.40;1.40;;;19.00;75.10;;;;;;5084707;27;43528;-73
2022/11/05 03:44:25;;;;;;;1.50;1.50;;;18.90;75.00;;;;;;5067423;27;46581;-73
2022/11/05 03:46:53;;;;;;;1.60;1.60;;;18.90;75.00;;;;;;5090256;27;43562;-70
2022/11/05 03:49:25;;;;;;;1.30;1.30;;;18.90;75.20;;;;;;5088393;27;43552;-72
2022/11/05 03:51:55;;;;;;;1.60;1.60;;;18.80;75.30;;;;;;5084708;27;43495;-70
2022/11/05 03:54:22;;;;;;;1.40;1.40;;;18.80;75.60;;;;;;5088118;27;43842;-71
2022/11/05 03:56:55;;;;;;;1.40;1.40;;;18.90;75.50;;;;;;5090746;27;44092;-72
2022/11/05 03:59:23;;;;;;;1.30;1.30;;;19.00;75.10;;;;;;5083578;27;44174;-72
2022/11/05 04:01:51;;;;;;;1.50;1.50;;;19.00;74.90;;;;;;5088389;27;43606;-71
2022/11/05 04:04:19;;;;;;;1.50;1.50;;;19.00;74.80;;;;;;5087720;27;43887;-72
2022/11/05 04:15:01;;;;;;;1.20;1.20;;;18.90;75.00;;;;;;5086841;27;43861;-70
2022/11/05 04:17:28;;;;;;;1.40;1.40;;;18.90;75.20;;;;;;5086945;27;43819;-72
2022/11/05 04:25:28;;;;;;;1.43;1.43;;;18.90;75.60;;;;;;5085600;27;43617;-72
2022/11/05 04:27:59;;;;;;;1.60;1.60;;;18.90;75.10;;;;;;5086413;27;43481;-73
2022/11/05 04:30:26;;;;;;;1.30;1.30;;;19.00;74.90;;;;;;5087033;27;43485;-69
2022/11/05 04:32:58;;;;;;;1.30;1.30;;;19.00;74.80;;;;;;5087936;27;43525;-71
2022/11/05 04:35:26;;;;;;;1.33;1.33;;;19.00;75.10;;;;;;5065606;28;45710;-73
2022/11/05 04:37:55;;;;;;;1.50;1.50;;;19.00;75.00;;;;;;5084371;27;43541;-70
2022/11/05 04:40:23;;;;;;;1.27;1.27;;;19.00;74.90;;;;;;5066019;28;43512;-71
2022/11/05 04:42:53;;;;;;;1.20;1.20;;;18.90;74.80;;;;;;5086031;27;43507;-71
2022/11/05 04:45:21;;;;;;;1.50;1.50;;;18.90;75.00;;;;;;5087548;27;44024;-70
2022/11/05 04:47:48;;;;;;;1.30;1.30;;;18.80;75.10;;;;;;5086133;27;43529;-70
2022/11/05 04:50:16;;;;;;;1.50;1.50;;;18.80;75.50;;;;;;5086777;27;43394;-71
2022/11/05 04:52:44;;;;;;;1.37;1.37;;;18.80;75.20;;;;;;5086054;27;43507;-73
2022/11/05 04:55:14;;;;;;;1.33;1.33;;;18.80;75.10;;;;;;5087465;27;43701;-72
2022/11/05 04:57:42;;;;;;;1.30;1.30;;;18.80;75.10;;;;;;5085992;27;43571;-72
2022/11/05 05:00:10;;;;;;;1.47;1.47;;;18.80;75.20;;;;;;5069020;28;44498;-70
2022/11/05 05:02:39;;;;;;;1.40;1.40;;;18.70;75.60;;;;;;5085542;27;43555;-70
2022/11/05 05:05:07;;;;;;;1.30;1.30;;;18.80;75.80;;;;;;5087355;27;43608;-70
2022/11/05 05:07:35;;;;;;;1.43;1.43;;;18.80;75.40;;;;;;5086025;27;43507;-72
2022/11/05 05:10:03;;;;;;;1.40;1.40;;;19.00;75.80;;;;;;5084769;27;43438;-72
2022/11/05 05:12:33;;;;;;;1.40;1.40;;;19.00;74.60;;;;;;5086411;27;43463;-71
2022/11/05 05:15:01;;;;;;;1.40;1.40;;;19.10;74.40;;;;;;5085142;27;43853;-71
2022/11/05 05:17:29;;;;;;;1.20;1.20;;;19.00;74.70;;;;;;5087404;27;43872;-70
2022/11/05 05:22:42;;;;;;;1.27;1.27;;;19.00;74.40;;;;;;5086114;27;43400;-73
2022/11/05 05:25:10;;;;;;;1.20;1.20;;;19.00;74.40;;;;;;5068077;27;45857;-70
2022/11/05 05:27:39;;;;;;;1.40;1.40;;;18.90;74.50;;;;;;5066737;27;44986;-70
2022/11/05 05:30:09;;;;;;;1.40;1.40;;;18.90;74.70;;;;;;5086479;27;43490;-74
2022/11/05 05:32:36;;;;;;;1.20;1.20;;;18.90;75.30;;;;;;5085670;27;43505;-69
2022/11/05 05:35:05;;;;;;;1.30;1.30;;;18.90;75.00;;;;;;5065010;28;45942;-71
2022/11/05 05:37:33;;;;;;;1.20;1.20;;;18.90;74.90;;;;;;5083404;27;43423;-74
2022/11/05 05:40:01;;;;;;;1.37;1.37;;;18.80;74.80;;;;;;5081660;27;43474;-70
2022/11/05 05:42:29;;;;;;;1.30;1.30;;;18.80;75.00;;;;;;5084241;27;43505;-70
2022/11/05 05:44:59;;;;;;;1.10;1.10;;;18.80;75.20;;;;;;5084059;27;44021;-70
2022/11/05 05:47:26;;;;;;;1.50;1.50;;;18.80;75.60;;;;;;5084127;27;43476;-71
2022/11/05 05:49:54;;;;;;;1.20;1.20;;;18.80;75.10;;;;;;5083690;27;43489;-70
2022/11/05 05:52:22;;;;;;;1.20;1.20;;;18.80;75.10;;;;;;5082580;27;43566;-71
2022/11/05 05:54:50;;;;;;;1.20;1.20;;;18.80;75.10;;;;;;5086603;27;43603;-72
2022/11/05 05:57:18;;;;;;;1.20;1.20;;;18.80;75.20;;;;;;5067382;27;44965;-72
2022/11/05 05:59:46;;;;;;;1.37;1.37;;;18.80;75.60;;;;;;5087133;27;43445;-71
2022/11/05 06:02:15;;;;;;;1.50;1.50;;;18.80;75.70;;;;;;5084831;27;43409;-71
2022/11/05 06:04:43;;;;;;;1.20;1.20;;;18.90;75.40;;;;;;5084186;27;43966;-70
2022/11/05 06:07:11;;;;;;;1.30;1.30;;;19.00;74.90;;;;;;5067429;27;44800;-70
2022/11/05 06:09:39;;;;;;;1.30;1.30;;;19.20;74.40;;;;;;5084431;27;43463;-73
2022/11/05 06:12:07;;;;;;;1.20;1.20;;;19.20;74.00;;;;;;5068617;27;43618;-70
2022/11/05 06:14:35;;;;;;;1.20;1.20;;;19.20;73.70;;;;;;5085649;27;43595;-70
2022/11/05 06:17:03;;;;;;;1.40;1.40;;;19.20;73.70;;;;;;5085650;27;43502;-70
2022/11/05 06:19:33;;;;;;;1.37;1.37;;;19.10;73.90;;;;;;5080720;27;44034;-70
2022/11/05 06:22:00;;;;;;;1.30;1.30;;;19.00;74.10;;;;;;5083497;27;44039;-70
2022/11/05 06:24:28;;;;;;;1.30;1.30;;;19.00;74.70;;;;;;5085167;27;43599;-73
2022/11/05 06:26:56;;;;;;;1.20;1.20;;;19.00;74.90;;;;;;5085794;27;44383;-70
2022/11/05 06:29:24;;;;;;;1.37;1.37;;;18.90;74.60;;;;;;5085339;27;43510;-72
2022/11/05 06:31:52;;;;;;;1.20;1.20;;;18.90;74.60;;;;;;5088700;27;43570;-70
2022/11/05 06:34:20;;;;;;;1.20;1.20;;;18.90;74.80;;;;;;5077391;27;45678;-71
2022/11/05 06:36:49;;;;;;;1.30;1.30;;;18.80;74.90;;;;;;5067450;28;44587;-71
2022/11/05 06:39:17;;;;;;;1.40;1.40;;;18.80;75.40;;;;;;5079793;27;43856;-71
2022/11/05 06:41:45;;;;;;;1.37;1.37;;;18.80;75.20;;;;;;5080103;27;43576;-72
2022/11/05 06:44:33;;;;;;;1.30;1.30;;;18.80;74.90;;;;;;5088872;27;44739;-75
2022/11/05 06:47:01;;;;;;;1.27;1.27;;;18.80;74.90;;;;;;5088838;27;43529;-70
2022/11/05 06:49:29;;;;;;;1.40;1.40;;;18.80;75.00;;;;;;5089002;27;43530;-73
2022/11/05 06:52:02;;;;;;;1.27;1.27;;;18.80;75.20;;;;;;5067120;27;43454;-73
2022/11/05 06:54:31;;;;;;;1.30;1.30;;;18.80;75.60;;;;;;5070048;27;45264;-71
2022/11/05 06:56:59;;;;;;;1.50;1.50;;;18.90;75.30;;;;;;5087801;27;43533;-70
2022/11/05 06:59:26;;;;;;;1.40;1.40;;;19.00;74.80;;;;;;5090307;27;43481;-70
2022/11/05 07:01:54;;;;;;;1.40;1.40;;;19.10;74.40;;;;;;5089284;27;43549;-71
2022/11/05 07:04:22;;;;;;;1.40;1.40;;;19.20;74.00;;;;;;5086130;27;43848;-72
2022/11/05 07:06:50;;;;;;;1.43;1.43;;;19.20;73.80;;;;;;5069444;27;44829;-71
2022/11/05 07:09:20;;;;;;;1.30;1.30;;;19.10;73.90;;;;;;5089942;27;43529;-70
2022/11/05 07:11:47;;;;;;;1.43;1.43;;;19.10;74.10;;;;;;5068778;27;43571;-71
2022/11/05 07:14:15;;;;;;;1.30;1.30;;;19.00;74.30;;;;;;5087910;27;43685;-70
2022/11/05 07:16:43;;;;;;;1.20;1.20;;;18.90;74.70;;;;;;5086350;27;43422;-73
2022/11/05 07:19:11;;;;;;;1.60;1.60;;;18.90;74.90;;;;;;5088721;27;43456;-71
2022/11/05 07:21:39;;;;;;;1.50;1.50;;;18.90;74.80;;;;;;5084222;27;43547;-71
2022/11/05 07:24:08;;;;;;;1.50;1.40;;;18.90;74.70;;;;;;5089973;27;44798;-71
2022/11/05 07:26:37;;;;;;;1.40;1.40;;;18.80;74.80;;;;;;5086571;27;43571;-70
2022/11/05 07:29:05;;;;;;;1.30;1.30;;;18.80;74.90;;;;;;5075056;27;44107;-70
2022/11/05 07:31:33;;;;;;;1.20;1.20;;;18.80;75.50;;;;;;5070460;27;43970;-71
2022/11/05 07:34:01;;;;;;;1.40;1.40;;;18.80;75.30;;;;;;5094621;27;43965;-71
2022/11/05 07:36:29;;;;;;;1.40;1.40;;;18.90;74.90;;;;;;5084748;27;43490;-70
2022/11/05 07:38:57;;;;;;;1.30;1.30;;;19.00;74.50;;;;;;5083631;27;43456;-70
2022/11/05 07:41:28;;;;;;;1.40;1.40;;;19.00;74.30;;;;;;5092480;27;43835;-72
2022/11/05 07:43:57;;;;;;;1.30;1.30;;;19.00;74.30;;;;;;5088354;27;44637;-71
2022/11/05 07:46:25;;;;;;;1.30;1.30;;;19.00;74.70;;;;;;5086781;27;43483;-72
2022/11/05 07:48:53;;;;;;;1.10;1.10;;;19.00;74.50;;;;;;5088358;27;44074;-71
2022/11/05 07:51:21;;;;;;;1.40;1.40;;;19.00;74.50;;;;;;5088881;27;44010;-72
2022/11/05 07:53:49;;;;;;;1.30;1.30;;;18.90;74.50;;;;;;5085964;27;43604;-69
2022/11/05 07:56:17;;;;;;;1.37;1.37;;;18.90;74.70;;;;;;5087506;27;43449;-72
2022/11/05 07:58:45;;;;;;;1.20;1.20;;;18.80;75.10;;;;;;5085804;27;43494;-70
2022/11/05 08:01:14;;;;;;;1.30;1.30;;;18.80;75.00;;;;;;5083520;27;43680;-71
2022/11/05 08:03:42;;;;;;;1.47;1.40;;;18.80;74.90;;;;;;5092469;27;43617;-72
2022/11/05 08:06:10;;;;;;;1.37;1.37;;;18.80;74.90;;;;;;5085917;27;43425;-71
2022/11/05 08:08:39;;;;;;;1.40;1.40;;;18.80;75.00;;;;;;5088118;27;43510;-72
2022/11/05 08:11:09;;;;;;;1.30;1.30;;;18.70;75.10;;;;;;5088724;27;43443;-72
2022/11/05 08:13:37;;;;;;;1.30;1.30;;;18.80;75.50;;;;;;5087130;27;44004;-72
2022/11/05 08:16:06;;;;;;;1.60;1.60;;;18.80;75.20;;;;;;5065185;28;44446;-70
2022/11/05 08:18:35;;;;;;;1.60;1.50;;;19.00;74.90;;;;;;5089677;27;43466;-70
2022/11/05 08:21:04;;;;;;;1.40;1.40;;;19.10;74.30;;;;;;5085822;27;43462;-71
2022/11/05 08:23:32;;;;;;;1.40;1.40;;;19.20;74.00;;;;;;5089791;28;43859;-71
2022/11/05 08:26:02;;;;;;;1.30;1.30;;;19.20;73.70;;;;;;5089639;28;43350;-72
2022/11/05 08:28:30;;;;;;;1.30;1.30;;;19.10;73.70;;;;;;5090187;28;43544;-70
2022/11/05 08:30:58;;;;;;;1.10;1.10;;;19.10;73.90;;;;;;5090134;28;43492;-71
2022/11/05 08:33:26;;;;;;;1.30;1.30;;;19.00;74.10;;;;;;5089242;28;43931;-69
2022/11/05 08:35:56;;;;;;;1.50;1.50;;;19.00;74.60;;;;;;5087372;28;44403;-70
2022/11/05 08:38:23;;;;;;;1.40;1.40;;;18.90;74.70;;;;;;5089175;28;43429;-71
2022/11/05 08:40:56;;;;;;;1.37;1.37;;;18.90;74.60;;;;;;5068862;28;43493;-71
2022/11/05 08:43:24;;;;;;;1.27;1.27;;;18.90;74.70;;;;;;5089529;28;43759;-70
2022/11/05 08:45:53;;;;;;;1.20;1.20;;;18.90;74.80;;;;;;5089082;28;43452;-72
2022/11/05 08:48:21;;;;;;;1.30;1.30;;;18.80;74.80;;;;;;5089103;28;44049;-70
2022/11/05 08:50:50;;;;;;;1.30;1.30;;;18.80;75.30;;;;;;5089443;28;43425;-71
2022/11/05 08:53:19;;;;;;;1.20;1.20;;;18.80;75.20;;;;;;5088706;28;44042;-71
2022/11/05 08:55:48;;;;;;;1.50;1.40;;;18.80;75.10;;;;;;5089180;28;43871;-71
2022/11/05 08:58:16;;;;;;;1.10;1.10;;;18.80;75.10;;;;;;5088857;28;43909;-70
2022/11/05 09:00:45;;;;;;;1.60;1.50;;;18.70;75.10;;;;;;5084488;28;43966;-71
2022/11/05 09:03:13;;;;;;;1.30;1.30;;;18.70;75.50;;;;;;5085773;28;43830;-71
2022/11/05 09:05:42;;;;;;;1.30;1.30;;;18.80;75.70;;;;;;5067975;28;44885;-70
2022/11/05 09:08:11;;;;;;;1.20;1.20;;;18.80;75.20;;;;;;5084558;27;43520;-70
2022/11/05 09:10:40;;;;;;;1.30;1.30;;;19.00;74.80;;;;;;5085378;28;43489;-71
2022/11/05 09:13:08;;;;;;;1.30;1.30;;;19.00;74.50;;;;;;5086361;28;43955;-71
2022/11/05 09:15:43;;;;;;;1.30;1.30;;;19.00;74.40;;;;;;5065235;28;44602;-72
2022/11/05 09:18:12;;;;;;;6.40;1.80;;;19.00;74.60;;;;;;5086070;28;43490;-72
2022/11/05 09:20:40;;;;;;;3.70;1.57;;;19.00;73.50;;;;;;5082232;27;43521;-70
2022/11/05 09:23:08;;;;;;;1.60;1.50;;;19.00;73.80;;;;;;5086819;27;44343;-71
2022/11/05 09:25:36;;;;;;;1.30;1.30;;;19.00;74.00;;;;;;5089220;27;43505;-70
2022/11/05 09:28:10;;;;;;;1.67;1.67;;;18.90;74.10;;;;;;5071205;28;43449;-71
2022/11/05 09:30:44;;;;;;;1.70;1.60;;;18.90;74.50;;;;;;5071908;28;43575;-71
2022/11/05 09:33:12;;;;;;;1.60;1.50;;;18.80;74.90;;;;;;5090655;27;43622;-72
2022/11/05 09:35:40;;;;;;;1.50;1.50;;;18.80;74.80;;;;;;5090197;27;43401;-70
2022/11/05 09:38:08;;;;;;;1.30;1.30;;;18.90;74.90;;;;;;5072548;28;43532;-71
2022/11/05 09:40:37;;;;;;;1.40;1.30;;;18.80;74.80;;;;;;5067955;28;43505;-73
2022/11/05 09:43:05;;;;;;;1.47;1.47;;;18.80;74.90;;;;;;5083446;28;44962;-71
2022/11/05 09:45:34;;;;;;;1.80;1.63;;;18.70;75.00;;;;;;5082252;28;44663;-70
2022/11/05 09:48:05;;;;;;;5.10;2.43;;;18.70;74.80;;;;;;5083498;27;43912;-71
2022/11/05 09:50:34;;;;;;;6.80;2.80;;;18.80;72.80;;;;;;5061928;28;43546;-71
2022/11/05 09:53:02;;;;;;;6.17;3.00;;;18.90;72.40;;;;;;5083304;28;43592;-71
2022/11/05 09:55:33;;;;;;;9.53;3.40;;;18.90;72.60;;;;;;5085282;28;43612;-72
2022/11/05 09:58:02;;;;;;;8.80;3.83;;;18.90;73.00;;;;;;5082089;28;44314;-72
2022/11/05 10:00:30;;;;;;;5.67;3.50;;;18.80;72.50;;;;;;5078673;27;43563;-71
2022/11/05 10:03:04;;;;;;;9.57;4.07;;;18.80;72.40;;;;;;5080343;27;44144;-72
2022/11/05 10:05:31;;;;;;;8.63;3.80;;;18.80;72.70;;;;;;5082394;28;44154;-73
2022/11/05 10:08:03;;;;;;;6.27;3.50;;;18.80;73.00;;;;;;5080765;27;43548;-70
2022/11/05 10:10:36;;;;;;;7.70;4.20;;;18.80;73.20;;;;;;5082077;28;43516;-71
2022/11/05 10:13:13;;;;;;;8.60;4.30;;;18.70;73.20;;;;;;5081456;27;44658;-71
2022/11/05 10:15:44;;;;;;;9.33;4.30;;;18.70;72.90;;;;;;5082395;28;44110;-71
2022/11/05 10:18:16;;;;;;;7.20;3.93;;;18.70;73.20;;;;;;5082630;28;43513;-72
2022/11/05 10:20:44;;;;;;;7.33;4.53;;;18.70;73.30;;;;;;5061083;27;43495;-72
2022/11/05 10:23:14;;;;;;;9.80;4.43;;;18.70;73.40;;;;;;5088672;27;44800;-70
2022/11/05 10:25:43;;;;;;;9.30;4.47;;;18.70;73.50;;;;;;5088195;28;43534;-71
2022/11/05 10:28:14;;;;;;;12.40;4.90;;;18.60;73.10;;;;;;5085896;28;43521;-71
2022/11/05 10:30:42;;;;;;;7.33;4.57;;;18.70;72.90;;;;;;5081282;28;43540;-71
2022/11/05 10:33:10;;;;;;;8.73;4.30;;;18.80;72.60;;;;;;5080551;28;44505;-71
2022/11/05 10:35:44;;;;;;;7.20;4.27;;;18.90;72.20;;;;;;5095636;22;44118;-79
2022/11/05 10:38:13;;;;;;;6.03;4.20;;;19.00;71.70;;;;;;5083809;27;44020;-77
2022/11/05 10:40:46;;;;;;;9.43;4.60;;;19.00;71.70;;;;;;5075791;27;43525;-77
2022/11/05 10:43:16;;;;;;;7.50;4.13;;;19.00;72.10;;;;;;5061863;28;45776;-79
2022/11/05 10:45:49;;;;;;;5.87;4.37;;;19.00;72.40;;;;;;5063071;28;44608;-77
2022/11/05 10:48:43;;;;;;;6.43;4.67;;;18.90;72.40;;;;;;5082727;28;43498;-77
2022/11/05 10:51:12;;;;;;;7.00;4.47;;;18.80;72.60;;;;;;5084010;28;43572;-77
2022/11/05 10:53:41;;;;;;;8.40;4.33;;;18.80;72.40;;;;;;5086079;28;44003;-78
2022/11/05 10:56:27;;;;;;;4.83;4.13;;;18.80;72.70;;;;;;5084945;28;44362;-76
2022/11/05 10:58:56;;;;;;;5.80;4.40;;;18.80;73.00;;;;;;5086513;28;43494;-78
2022/11/05 11:01:24;;;;;;;8.60;4.97;;;18.70;73.60;;;;;;5068522;28;43486;-78
2022/11/05 11:04:03;;;;;;;9.57;6.10;;;18.70;73.00;;;;;;5064784;28;44145;-76
2022/11/05 11:06:36;;;;;;;8.73;5.40;;;18.70;72.40;;;;;;5082928;28;43493;-75
2022/11/05 11:09:06;;;;;;;8.00;5.97;;;18.70;72.40;;;;;;5063135;28;43892;-78
2022/11/05 11:11:36;;;;;;;7.87;5.97;;;18.70;71.90;;;;;;5083117;28;44103;-77
2022/11/05 11:14:05;;;;;;;8.73;5.23;;;18.70;71.90;;;;;;5059582;28;45893;-76
2022/11/05 11:16:36;;;;;;;6.43;5.40;;;18.60;71.90;;;;;;5081627;28;44059;-78
2022/11/05 11:19:04;;;;;;;8.53;5.43;;;18.60;72.20;;;;;;5083292;28;43858;-78
2022/11/05 11:21:34;;;;;;;8.23;5.80;;;18.70;72.20;;;;;;5066233;28;43677;-78
2022/11/05 11:24:05;;;;;;;6.60;5.47;;;18.70;71.90;;;;;;5082222;28;43928;-78
2022/11/05 11:26:34;;;;;;;8.47;6.00;;;18.80;71.40;;;;;;5085114;27;43788;-76
2022/11/05 11:29:07;;;;;;;8.27;5.70;;;18.90;71.40;;;;;;5053730;28;43503;-78
2022/11/05 11:31:38;;;;;;;10.93;5.80;;;18.90;71.60;;;;;;5060598;28;43613;-77
2022/11/05 11:34:07;;;;;;;8.10;5.47;;;18.90;71.70;;;;;;5063040;28;43840;-78
2022/11/05 11:36:40;;;;;;;9.47;5.63;;;18.90;71.50;;;;;;5043231;28;44645;-76
2022/11/05 11:39:12;;;;;;;5.50;5.00;;;18.90;71.80;;;;;;5063261;28;43470;-76
2022/11/05 11:41:41;;;;;;;7.60;5.53;;;18.80;72.00;;;;;;5061150;28;44539;-78
2022/11/05 11:44:12;;;;;;;7.27;5.50;;;18.80;72.10;;;;;;5058371;28;44158;-77
2022/11/05 11:46:40;;;;;;;7.20;5.53;;;18.70;72.20;;;;;;5042133;28;43939;-76
2022/11/05 11:49:12;;;;;;;11.40;5.73;;;18.70;72.20;;;;;;5061219;28;43619;-77
2022/11/05 11:51:43;;;;;;;7.67;5.13;;;18.70;72.20;;;;;;5042935;28;43571;-72
2022/11/05 11:54:19;;;;;;;6.00;5.00;;;18.70;72.40;;;;;;5059832;28;44787;-75
2022/11/05 11:56:48;;;;;;;5.40;4.90;;;18.70;72.50;;;;;;5042694;28;44692;-77
2022/11/05 11:59:22;;;;;;;6.50;5.33;;;18.70;72.50;;;;;;5058776;28;43620;-78
2022/11/05 12:02:30;;;;;;;8.10;5.57;;;18.60;72.60;;;;;;5043391;28;43520;-77
2022/11/05 12:05:10;;;;;;;9.50;5.83;;;18.70;72.50;;;;;;5064406;28;44265;-75
2022/11/05 12:07:48;;;;;;;6.13;5.37;;;18.80;72.20;;;;;;5060360;28;44407;-78
2022/11/05 12:10:26;;;;;;;8.20;5.07;;;18.80;71.70;;;;;;5060411;28;44144;-78
2022/11/05 12:13:02;;;;;;;6.80;5.60;;;18.90;71.60;;;;;;5058678;28;43542;-78
2022/11/05 12:15:37;;;;;;;6.70;5.83;;;18.80;71.90;;;;;;5040917;28;45913;-78
2022/11/05 12:18:05;;;;;;;5.67;5.00;;;18.80;71.70;;;;;;5059453;28;44595;-78
2022/11/05 12:20:40;;;;;;;6.57;5.70;;;18.80;71.70;;;;;;5043919;28;43802;-76
2022/11/05 12:23:20;;;;;;;6.17;5.10;;;18.80;72.00;;;;;;5062821;28;43554;-78
2022/11/05 12:25:51;;;;;;;7.30;5.50;;;18.80;72.20;;;;;;5058768;22;46017;-72
2022/11/05 12:28:34;;;;;;;7.83;5.50;;;18.70;72.20;;;;;;5044367;28;44616;-73
2022/11/05 12:31:05;;;;;;;5.57;5.00;;;18.70;72.50;;;;;;5042109;28;43650;-73
2022/11/05 12:33:39;;;;;;;6.60;5.07;;;18.70;72.90;;;;;;5041695;28;44104;-72
2022/11/05 12:36:14;;;;;;;5.47;4.73;;;18.70;72.50;;;;;;5042740;28;44280;-72
2022/11/05 12:39:04;;;;;;;5.60;5.10;;;18.70;72.80;;;;;;5031698;28;43469;-73
2022/11/05 12:41:33;;;;;;;6.13;5.13;;;18.70;73.00;;;;;;5022170;28;43521;-72
2022/11/05 12:44:11;;;;;;;5.40;4.90;;;18.70;73.20;;;;;;5022947;28;43712;-73
2022/11/05 12:46:43;;;;;;;5.30;4.80;;;18.70;73.80;;;;;;5024064;28;45651;-73
2022/11/05 12:49:29;;;;;;;7.33;5.00;;;18.70;73.60;;;;;;5017599;28;43547;-72
2022/11/05 12:52:07;;;;;;;5.57;4.63;;;18.80;73.20;;;;;;5022798;28;43428;-72
2022/11/05 12:54:44;;;;;;;4.93;4.50;;;18.90;73.00;;;;;;5024044;28;43505;-73
2022/11/05 12:57:13;;;;;;;5.23;4.90;;;18.90;72.70;;;;;;5022151;28;46034;-72
2022/11/05 12:59:43;;;;;;;5.93;4.90;;;18.80;73.20;;;;;;5023028;28;43523;-72
2022/11/05 13:02:16;;;;;;;4.87;4.47;;;18.90;73.20;;;;;;5019557;28;44919;-73
2022/11/05 13:04:47;;;;;;;5.10;4.70;;;18.80;72.80;;;;;;5023831;28;43400;-72
2022/11/05 13:07:18;;;;;;;5.00;4.70;;;18.80;73.00;;;;;;5026272;28;43604;-71
2022/11/05 13:09:49;;;;;;;4.60;4.30;;;18.80;73.10;;;;;;5025728;28;43665;-73
2022/11/05 13:12:18;;;;;;;4.90;4.47;;;18.70;73.30;;;;;;5023586;28;43467;-73
2022/11/05 13:14:48;;;;;;;4.63;4.23;;;18.70;73.70;;;;;;5019960;28;43512;-73
2022/11/05 13:17:17;;;;;;;4.30;4.00;;;18.70;73.40;;;;;;5021748;28;45737;-73
2022/11/05 13:19:48;;;;;;;5.00;4.47;;;18.70;73.40;;;;;;5021163;28;44849;-73
2022/11/05 13:22:25;;;;;;;4.67;4.33;;;18.70;73.50;;;;;;5025128;28;43563;-73
2022/11/05 13:24:56;;;;;;;4.73;4.30;;;18.70;73.50;;;;;;5022222;28;43916;-73
2022/11/05 13:27:38;;;;;;;4.80;4.40;;;18.70;73.40;;;;;;5026307;28;43584;-73
2022/11/05 13:30:09;;;;;;;4.87;4.37;;;18.70;72.70;;;;;;5022611;28;43551;-72
2022/11/05 13:32:38;;;;;;;6.73;4.80;;;18.80;72.70;;;;;;5021294;28;43468;-73
2022/11/05 13:35:14;;;;;;;4.73;4.33;;;18.90;72.70;;;;;;5020830;28;44033;-73
2022/11/05 13:40:34;;;;;;;4.87;4.57;;;19.10;72.40;;;;;;5021266;28;43741;-72
2022/11/05 13:43:09;;;;;;;4.60;4.20;;;19.00;72.20;;;;;;5024548;28;43468;-72
2022/11/05 13:46:02;;;;;;;4.23;3.93;;;19.00;72.40;;;;;;5023391;28;43456;-73
2022/11/05 13:48:49;;;;;;;5.00;4.17;;;18.90;72.70;;;;;;5020762;28;43831;-72